createdAt,value
2022-09-12T00:00:47.199Z,100.00
2022-09-12T00:03:42.967Z,100.00
2022-09-12T00:06:22.667Z,100.00
2022-09-12T00:08:57.833Z,100.00
2022-09-12T00:11:30.540Z,100.00
2022-09-12T00:14:04.565Z,100.00
2022-09-12T00:16:38.499Z,100.00
2022-09-12T00:19:11.656Z,100.00
2022-09-12T00:21:44.284Z,100.00
2022-09-12T00:24:16.932Z,100.00
2022-09-12T00:26:49.280Z,100.00
2022-09-12T00:29:23.494Z,100.00
2022-09-12T00:31:57.032Z,100.00
2022-09-12T00:34:29.315Z,100.00
2022-09-12T00:37:01.872Z,100.00
2022-09-12T00:39:34.512Z,100.00
2022-09-12T00:42:07.309Z,100.00
2022-09-12T00:44:54.269Z,100.00
2022-09-12T00:47:32.308Z,100.00
2022-09-12T00:50:10.234Z,100.00
2022-09-12T00:52:45.889Z,100.00
2022-09-12T00:55:22.338Z,100.00
2022-09-12T00:57:58.884Z,100.00
2022-09-12T01:00:31.242Z,100.00
2022-09-12T01:03:06.417Z,100.00
2022-09-12T01:05:44.335Z,100.00
2022-09-12T01:08:17.012Z,100.00
2022-09-12T01:10:50.014Z,100.00
2022-09-12T01:13:22.654Z,100.00
2022-09-12T01:15:55.937Z,100.00
2022-09-12T01:18:33.861Z,100.00
2022-09-12T01:21:14.936Z,100.00
2022-09-12T01:24:11.171Z,100.00
2022-09-12T01:27:21.968Z,100.00
2022-09-12T01:30:17.619Z,100.00
2022-09-12T01:33:04.882Z,100.00
2022-09-12T01:35:46.268Z,100.00
2022-09-12T01:38:25.847Z,100.00
2022-09-12T01:41:06.364Z,100.00
2022-09-12T01:43:48.241Z,100.00
2022-09-12T01:46:24.739Z,100.00
2022-09-12T01:49:01.505Z,100.00
2022-09-12T01:51:40.048Z,100.00
2022-09-12T01:54:18.488Z,100.00
2022-09-12T01:56:55.104Z,100.00
2022-09-12T01:59:31.929Z,100.00
2022-09-12T02:02:09.941Z,100.00
2022-09-12T02:04:48.859Z,100.00
2022-09-12T02:19:17.101Z,100.00
2022-09-12T02:32:14.872Z,100.00
2022-09-12T02:39:06.813Z,100.00
2022-09-12T02:41:39.551Z,100.00
2022-09-12T02:44:18.475Z,100.00
2022-09-12T02:51:05.780Z,100.00
2022-09-12T02:57:34.376Z,100.00
2022-09-12T03:18:43.862Z,100.00
2022-09-12T03:21:39.224Z,100.00
2022-09-12T03:26:04.578Z,100.00
2022-09-12T03:29:25.069Z,100.00
2022-09-12T03:36:54.844Z,100.00
2022-09-12T03:43:53.581Z,100.00
2022-09-12T03:46:26.064Z,100.00
2022-09-12T03:49:06.262Z,100.00
2022-09-12T03:56:57.493Z,100.00
2022-09-12T03:59:36.710Z,100.00
2022-09-12T04:02:11.861Z,100.00
2022-09-12T04:05:40.400Z,100.00
2022-09-12T04:08:13.054Z,100.00
2022-09-12T04:11:14.061Z,100.00
2022-09-12T04:18:06.097Z,100.00
2022-09-12T04:25:34.623Z,100.00
2022-09-12T04:29:20.623Z,100.00
2022-09-12T04:31:53.206Z,100.00
2022-09-12T04:34:35.338Z,100.00
2022-09-12T04:37:54.778Z,100.00
2022-09-12T04:40:32.164Z,100.00
2022-09-12T04:43:11.198Z,100.00
2022-09-12T04:46:35.388Z,100.00
2022-09-12T04:49:16.385Z,100.00
2022-09-12T04:57:35.260Z,100.00
2022-09-12T05:00:16.331Z,100.00
2022-09-12T05:03:03.314Z,100.00
2022-09-12T05:05:38.538Z,100.00
2022-09-12T05:13:49.184Z,100.00
2022-09-12T05:16:31.373Z,100.00
2022-09-12T05:23:42.725Z,100.00
2022-09-12T05:26:21.707Z,100.00
2022-09-12T05:33:01.397Z,100.00
2022-09-12T05:35:34.059Z,100.00
2022-09-12T05:38:12.388Z,100.00
2022-09-12T05:40:45.047Z,100.00
2022-09-12T05:43:23.852Z,100.00
2022-09-12T05:50:17.533Z,100.00
2022-09-12T06:02:04.534Z,100.00
2022-09-12T06:13:53.895Z,100.00
2022-09-12T06:16:28.211Z,100.00
2022-09-12T06:19:50.350Z,100.00
2022-09-12T06:22:22.706Z,100.00
2022-09-12T06:25:01.451Z,100.00
2022-09-12T06:31:55.350Z,100.00
2022-09-12T06:34:27.980Z,100.00
2022-09-12T06:37:06.593Z,100.00
2022-09-12T06:39:39.340Z,100.00
2022-09-12T06:42:20.096Z,100.00
2022-09-12T06:50:17.033Z,100.00
2022-09-12T06:52:55.463Z,100.00
2022-09-12T06:55:28.279Z,100.00
2022-09-12T06:58:07.092Z,100.00
2022-09-12T07:00:39.729Z,100.00
2022-09-12T07:03:18.625Z,100.00
2022-09-12T07:05:51.152Z,100.00
2022-09-12T07:08:31.965Z,100.00
2022-09-12T07:11:54.479Z,100.00
2022-09-12T07:14:33.580Z,100.00
2022-09-12T07:17:06.153Z,100.00
2022-09-12T07:19:44.814Z,100.00
2022-09-12T07:22:17.610Z,100.00
2022-09-12T07:24:57.726Z,100.00
2022-09-12T07:36:19.260Z,98.64
2022-09-12T07:48:22.620Z,97.28
2022-09-12T07:55:27.458Z,97.18
2022-09-12T07:58:06.684Z,97.01
2022-09-12T08:00:38.928Z,98.79
2022-09-12T08:03:17.918Z,98.55
2022-09-12T08:05:49.999Z,100.00
2022-09-12T08:13:12.861Z,92.75
2022-09-12T08:15:51.613Z,92.76
2022-09-12T08:23:44.369Z,95.68
2022-09-12T08:26:24.788Z,92.22
2022-09-12T08:28:57.333Z,92.26
2022-09-12T08:31:37.454Z,91.38
2022-09-12T08:39:02.992Z,86.46
2022-09-12T08:47:11.727Z,85.85
2022-09-12T08:50:17.787Z,82.68
2022-09-12T08:53:47.735Z,80.35
2022-09-12T09:02:00.833Z,84.17
2022-09-12T09:05:31.846Z,80.64
2022-09-12T09:17:45.165Z,75.05
2022-09-12T09:24:50.569Z,75.03
2022-09-12T09:49:24.649Z,71.45
2022-09-12T09:56:21.464Z,68.46
2022-09-12T10:03:58.467Z,69.06
2022-09-12T10:14:41.637Z,67.86
2022-09-12T10:17:34.500Z,67.91
2022-09-12T10:20:32.858Z,68.05
2022-09-12T10:23:24.736Z,67.11
2022-09-12T10:25:59.593Z,67.51
2022-09-12T10:28:37.453Z,67.69
2022-09-12T10:31:11.792Z,66.92
2022-09-12T10:33:52.899Z,66.81
2022-09-12T10:36:37.019Z,67.07
2022-09-12T10:39:17.427Z,67.83
2022-09-12T10:41:49.883Z,67.97
2022-09-12T10:44:28.236Z,67.47
2022-09-12T10:47:02.461Z,67.68
2022-09-12T10:49:55.515Z,67.31
2022-09-12T10:52:28.699Z,67.53
2022-09-12T10:55:01.879Z,67.82
2022-09-12T10:57:48.173Z,68.03
2022-09-12T11:00:27.950Z,67.14
2022-09-12T11:03:16.452Z,66.30
2022-09-12T11:06:01.252Z,66.36
2022-09-12T11:08:59.456Z,66.93
2022-09-12T11:11:46.803Z,67.81
2022-09-12T11:14:31.807Z,67.20
2022-09-12T11:17:13.723Z,66.79
2022-09-12T11:20:15.248Z,66.59
2022-09-12T11:23:10.531Z,67.19
2022-09-12T11:25:49.236Z,67.29
2022-09-12T11:28:32.673Z,65.77
2022-09-12T11:31:32.243Z,66.53
2022-09-12T11:34:10.610Z,66.03
2022-09-12T11:36:57.335Z,65.24
2022-09-12T11:39:38.023Z,65.48
2022-09-12T11:42:19.790Z,66.12
2022-09-12T11:45:14.017Z,66.57
2022-09-12T11:47:49.372Z,66.48
2022-09-12T11:50:27.052Z,66.13
2022-09-12T11:53:06.434Z,65.55
2022-09-12T11:55:48.101Z,66.10
2022-09-12T11:58:24.618Z,66.35
2022-09-12T12:01:00.521Z,66.25
2022-09-12T12:03:41.970Z,65.73
2022-09-12T12:06:20.495Z,65.59
2022-09-12T12:08:56.710Z,65.02
2022-09-12T12:11:35.305Z,66.19
2022-09-12T12:14:18.259Z,66.34
2022-09-12T12:16:51.224Z,65.80
2022-09-12T12:19:35.945Z,66.01
2022-09-12T12:27:14.765Z,65.40
2022-09-12T12:29:48.054Z,65.28
2022-09-12T12:42:36.068Z,66.70
2022-09-12T12:45:50.000Z,66.41
2022-09-12T12:48:22.378Z,66.53
2022-09-12T12:51:15.968Z,67.05
2022-09-12T12:53:48.743Z,66.35
2022-09-12T12:56:35.426Z,66.83
2022-09-12T13:03:35.293Z,67.11
2022-09-12T13:06:10.426Z,67.01
2022-09-12T13:08:56.824Z,67.07
2022-09-12T13:11:36.977Z,66.91
2022-09-12T13:14:30.798Z,66.45
2022-09-12T13:17:06.185Z,66.18
2022-09-12T13:19:40.550Z,65.57
2022-09-12T13:22:13.087Z,66.46
2022-09-12T13:24:48.987Z,66.85
2022-09-12T13:27:23.374Z,66.61
2022-09-12T13:30:09.781Z,66.29
2022-09-12T13:32:42.570Z,66.13
2022-09-12T13:35:23.410Z,65.94
2022-09-12T13:38:03.018Z,65.85
2022-09-12T13:40:42.728Z,65.71
2022-09-12T13:43:21.540Z,66.03
2022-09-12T13:45:56.320Z,65.99
2022-09-12T13:48:28.994Z,66.12
2022-09-12T13:51:07.060Z,66.32
2022-09-12T13:53:51.022Z,66.25
2022-09-12T13:56:23.763Z,66.75
2022-09-12T13:58:58.100Z,66.91
2022-09-12T14:01:42.633Z,66.90
2022-09-12T14:04:38.994Z,67.16
2022-09-12T14:07:17.518Z,66.72
2022-09-12T14:09:57.222Z,66.02
2022-09-12T14:12:33.275Z,66.21
2022-09-12T14:15:07.227Z,66.66
2022-09-12T14:17:41.831Z,66.51
2022-09-12T14:20:18.822Z,66.25
2022-09-12T14:22:52.851Z,66.81
2022-09-12T14:28:31.788Z,67.24
2022-09-12T14:31:08.456Z,66.95
2022-09-12T14:33:51.682Z,66.84
2022-09-12T14:36:33.681Z,67.06
2022-09-12T14:39:18.269Z,67.22
2022-09-12T14:41:51.633Z,67.30
2022-09-12T14:44:28.583Z,67.46
2022-09-12T14:47:12.563Z,67.81
2022-09-12T14:49:45.033Z,66.79
2022-09-12T14:52:32.385Z,66.45
2022-09-12T14:55:22.006Z,66.62
2022-09-12T14:58:13.252Z,66.13
2022-09-12T15:00:57.935Z,66.54
2022-09-12T15:03:33.055Z,66.43
2022-09-12T15:06:08.125Z,66.67
2022-09-12T15:08:43.263Z,66.59
2022-09-12T15:11:15.331Z,66.46
2022-09-12T15:13:47.590Z,66.40
2022-09-12T15:16:20.142Z,66.30
2022-09-12T15:18:52.335Z,66.45
2022-09-12T15:21:27.509Z,66.34
2022-09-12T15:24:00.255Z,66.39
2022-09-12T15:26:32.472Z,66.47
2022-09-12T15:29:04.926Z,66.73
2022-09-12T15:31:37.069Z,66.67
2022-09-12T15:34:10.241Z,66.63
2022-09-12T15:36:42.571Z,67.02
2022-09-12T15:39:14.661Z,67.14
2022-09-12T15:41:48.889Z,67.13
2022-09-12T15:44:21.029Z,67.35
2022-09-12T15:46:53.428Z,67.37
2022-09-12T15:49:25.527Z,67.53
2022-09-12T15:51:57.589Z,67.52
2022-09-12T15:54:32.938Z,67.94
2022-09-12T15:57:05.134Z,67.82
2022-09-12T15:59:37.471Z,68.19
2022-09-12T16:02:12.729Z,68.40
2022-09-12T16:04:44.904Z,68.43
2022-09-12T16:07:17.263Z,68.28
2022-09-12T16:09:50.179Z,68.51
2022-09-12T16:12:22.375Z,68.47
2022-09-12T16:14:54.878Z,68.65
2022-09-12T16:17:27.864Z,68.65
2022-09-12T16:20:02.622Z,68.73
2022-09-12T16:22:35.250Z,69.29
2022-09-12T16:25:09.225Z,69.29
2022-09-12T16:27:41.922Z,69.23
2022-09-12T16:30:16.777Z,69.62
2022-09-12T16:32:49.053Z,70.16
2022-09-12T16:35:21.872Z,70.26
2022-09-12T16:37:54.065Z,70.68
2022-09-12T16:40:26.109Z,71.18
2022-09-12T16:42:58.393Z,71.35
2022-09-12T16:45:30.647Z,71.30
2022-09-12T16:48:03.508Z,71.88
2022-09-12T16:50:36.010Z,72.10
2022-09-12T16:53:08.601Z,72.33
2022-09-12T16:56:11.172Z,72.53
2022-09-12T16:59:48.982Z,72.75
2022-09-12T17:02:23.990Z,73.07
2022-09-12T17:05:02.620Z,73.53
2022-09-12T17:07:35.376Z,73.99
2022-09-12T17:10:08.637Z,74.19
2022-09-12T17:12:49.588Z,74.62
2022-09-12T17:16:12.891Z,75.01
2022-09-12T17:22:37.837Z,75.33
2022-09-12T17:25:11.239Z,75.51
2022-09-12T17:28:29.420Z,75.61
2022-09-12T17:31:04.234Z,76.13
2022-09-12T17:35:30.888Z,76.44
2022-09-12T17:42:34.242Z,77.13
2022-09-12T17:45:15.048Z,76.85
2022-09-12T17:48:39.675Z,77.22
2022-09-12T17:51:21.064Z,77.28
2022-09-12T17:54:42.358Z,77.52
2022-09-12T17:58:04.619Z,77.49
2022-09-12T18:04:50.545Z,78.17
2022-09-12T18:08:14.291Z,78.47
2022-09-12T18:11:35.444Z,78.34
2022-09-12T18:19:02.660Z,78.84
2022-09-12T18:23:18.821Z,78.82
2022-09-12T18:27:04.456Z,79.22
2022-09-12T18:29:39.541Z,79.26
2022-09-12T18:33:09.851Z,79.38
2022-09-12T18:39:48.834Z,79.47
2022-09-12T18:47:16.440Z,79.71
2022-09-12T19:03:08.207Z,80.39
2022-09-12T19:05:40.912Z,80.20
2022-09-12T19:08:14.185Z,80.40
2022-09-12T19:10:46.709Z,80.42
2022-09-12T19:13:19.474Z,80.31
2022-09-12T19:15:52.489Z,80.33
2022-09-12T19:18:24.936Z,80.67
2022-09-12T19:20:57.778Z,80.87
2022-09-12T19:23:31.683Z,80.74
2022-09-12T19:26:06.866Z,81.17
2022-09-12T19:28:39.645Z,81.18
2022-09-12T19:31:14.634Z,81.39
2022-09-12T19:33:47.381Z,81.47
2022-09-12T19:36:43.894Z,81.52
2022-09-12T19:39:15.243Z,81.43
2022-09-12T19:41:50.596Z,81.56
2022-09-12T19:44:23.769Z,81.57
2022-09-12T19:46:56.670Z,81.88
2022-09-12T19:49:29.503Z,81.77
2022-09-12T19:52:02.377Z,81.78
2022-09-12T19:54:35.876Z,81.84
2022-09-12T19:57:10.827Z,81.65
2022-09-12T19:59:43.393Z,81.94
2022-09-12T20:02:17.292Z,81.93
2022-09-12T20:04:52.225Z,82.22
2022-09-12T20:07:25.061Z,82.09
2022-09-12T20:09:58.204Z,82.45
2022-09-12T20:12:33.428Z,82.41
2022-09-12T20:15:06.500Z,82.43
2022-09-12T20:17:40.018Z,82.58
2022-09-12T20:20:13.087Z,82.49
2022-09-12T20:22:46.585Z,82.70
2022-09-12T20:25:20.123Z,82.46
2022-09-12T20:27:54.979Z,82.62
2022-09-12T20:30:30.561Z,82.95
2022-09-12T20:33:04.970Z,83.04
2022-09-12T20:35:38.214Z,83.14
2022-09-12T20:38:12.731Z,83.17
2022-09-12T20:40:50.625Z,83.11
2022-09-12T20:43:23.093Z,83.44
2022-09-12T20:45:55.285Z,83.67
2022-09-12T20:48:27.417Z,83.85
2022-09-12T20:51:03.181Z,83.88
2022-09-12T20:53:35.712Z,84.17
2022-09-12T20:56:10.417Z,84.23
2022-09-12T20:58:44.260Z,83.90
2022-09-12T21:01:18.415Z,84.04
2022-09-12T21:03:51.406Z,84.11
2022-09-12T21:06:24.439Z,84.03
2022-09-12T21:09:00.679Z,84.37
2022-09-12T21:11:33.226Z,84.40
2022-09-12T21:14:06.582Z,84.43
2022-09-12T21:16:39.417Z,84.21
2022-09-12T21:19:11.531Z,84.31
2022-09-12T21:21:43.858Z,84.33
2022-09-12T21:24:16.909Z,84.40
2022-09-12T21:26:49.325Z,84.35
2022-09-12T21:29:21.366Z,84.40
2022-09-12T21:31:53.820Z,84.46
2022-09-12T21:34:25.952Z,84.32
2022-09-12T21:36:58.215Z,84.49
2022-09-12T21:39:30.901Z,84.57
2022-09-12T21:42:03.003Z,84.57
2022-09-12T21:44:35.172Z,84.78
2022-09-12T21:47:07.672Z,84.70
2022-09-12T21:49:39.797Z,84.78
2022-09-12T21:52:12.632Z,84.69
2022-09-12T21:54:44.851Z,84.83
2022-09-12T21:57:16.967Z,84.73
2022-09-12T21:59:49.377Z,84.89
2022-09-12T22:02:23.060Z,85.28
2022-09-12T22:04:55.195Z,84.82
2022-09-12T22:07:27.905Z,84.87
2022-09-12T22:10:00.494Z,84.88
2022-09-12T22:12:33.539Z,84.84
2022-09-12T22:15:29.283Z,85.07
2022-09-12T22:18:00.150Z,84.88
2022-09-12T22:20:35.259Z,85.13
2022-09-12T22:23:25.371Z,85.14
2022-09-12T22:25:59.025Z,85.20
2022-09-12T22:28:32.389Z,85.06
2022-09-12T22:31:06.527Z,85.16
2022-09-12T22:33:39.170Z,84.93
2022-09-12T22:36:12.055Z,85.00
2022-09-12T22:38:44.419Z,85.11
2022-09-12T22:41:17.176Z,85.28
2022-09-12T22:43:55.476Z,85.29
2022-09-12T22:46:28.065Z,85.65
2022-09-12T22:49:00.338Z,85.44
2022-09-12T22:51:32.875Z,85.50
2022-09-12T22:54:05.795Z,85.50
2022-09-12T22:56:38.244Z,85.61
2022-09-12T22:59:10.564Z,85.61
2022-09-12T23:01:42.728Z,85.40
2022-09-12T23:04:15.011Z,85.29
2022-09-12T23:06:47.403Z,85.34
2022-09-12T23:09:19.775Z,85.62
2022-09-12T23:11:52.179Z,85.47
2022-09-12T23:14:24.365Z,85.61
2022-09-12T23:16:56.640Z,85.75
2022-09-12T23:19:29.343Z,85.81
2022-09-12T23:22:01.812Z,85.55
2022-09-12T23:24:34.084Z,85.92
2022-09-12T23:27:06.757Z,85.95
2022-09-12T23:29:39.332Z,85.77
2022-09-12T23:32:11.755Z,85.97
2022-09-12T23:34:46.532Z,85.95
2022-09-12T23:37:18.910Z,85.98
2022-09-12T23:39:51.624Z,86.14
2022-09-12T23:42:24.422Z,86.10
2022-09-12T23:44:56.779Z,86.15
2022-09-12T23:47:29.093Z,86.39
2022-09-12T23:50:01.547Z,86.55
2022-09-12T23:52:34.318Z,86.60
2022-09-12T23:55:07.435Z,86.42
2022-09-12T23:57:39.948Z,86.27
